Track Голубев Михаил

Time Latitude Longitude Accuracy (66% radius in meters) Altitude (meters) Speed (km/hour) Bearing (degrees) Battery (%) GPS flag
08:53:20 60.370950 29.556277 8 75.629525102928 0.19932618737221 176.74078369141 90 1 delete
08:53:17 60.370963 29.556288 6 75.919544901959 0.50679737329483 176.74078369141 90 1 delete
08:53:11 60.370997 29.556331 4 76.912104141183 0.20719470083714 249.2474822998 90 1 delete
08:52:59 60.370999 29.556342 8 76.745462677933 0.30841165781021 68.768798828125 90 1 delete
08:52:47 60.370988 29.556333 8 75.856276706354 0.13681858778 315.46575927734 90 1 delete
08:52:38 60.371000 29.556392 8 75.740778804115 0.25011643767357 315.46575927734 90 1 delete
08:52:35 60.371009 29.556364 6 75.767196973179 0.041518099606037 315.46575927734 90 1 delete
08:52:23 60.371011 29.556338 6 76.090009139818 0.14950959384441 178.46899414062 90 1 delete
08:52:17 60.371026 29.556309 8 76.463095223967 0.037695296108723 350.48760986328 90 1 delete
08:52:14 60.371017 29.556318 6 76.526071158707 0.20751076936722 350.48760986328 90 1 delete
08:52:02 60.370975 29.556296 6 77.461204111026 0.19081489741802 183.20457458496 90 1 delete
08:51:50 60.370969 29.556324 6 76.787336810993 0.042210817337036 39.249908447266 90 1 delete
08:51:38 60.370954 29.556300 6 77.994000190781 0.046428561210632 72.078422546387 90 1 delete
08:51:32 60.370979 29.556311 12 77.265249321439 0.16068576276302 72.078422546387 90 1 delete
08:51:29 60.370992 29.556317 12 76.865128193359 0.036087714135647 72.078422546387 90 1 delete
08:51:17 60.371046 29.556315 8 76.248637984396 0.11464758962393 72.078422546387 90 1 delete
08:51:11 60.371032 29.556344 8 75.07096418167 0.30224603414536 72.078422546387 90 1 delete
08:51:05 60.371012 29.556370 6 73.092855969522 0.12148022651672 235.70816040039 90 1 delete
08:50:53 60.371002 29.556364 8 73.027713446318 0.21268640458584 323.01333618164 90 1 delete
08:50:44 60.370993 29.556358 8 73.720510272608 0.20567153394222 323.01333618164 90 1 delete
08:50:32 60.371017 29.556349 6 75.176877758024 0.28783285617828 355.48272705078 90 1 delete
08:50:20 60.371003 29.556274 4 76.311273252255 0.030707497149706 255.93151855469 90 1 delete
08:50:11 60.370978 29.556335 4 76.086644829252 0.13426242768764 326.12884521484 90 1 delete
08:50:08 60.370969 29.556315 6 76.035973211771 0.0028729434125125 326.12884521484 90 1 delete
08:49:56 60.370950 29.556290 6 75.887532127543 0.25660622119904 290.54382324219 90 1 delete
08:49:47 60.370968 29.556296 6 76.27947586338 0.086489297449589 209.80241394043 90 1 delete
08:49:35 60.370971 29.556213 12 76.185905386716 0.10118256509304 209.80241394043 90 1 delete
08:49:23 60.370967 29.556208 6 76.178372549934 0.42067521810532 209.80241394043 90 1 delete
08:49:11 60.370964 29.556229 6 75.85778365035 0.34684309363365 277.31600952148 90 1 delete
08:49:08 60.370963 29.556241 4 75.66692137397 0.028319800272584 294.46295166016 90 1 delete
08:49:02 60.370974 29.556245 4 75.234399678681 0.01800019107759 308.59140014648 90 1 delete
08:48:50 60.371002 29.556306 6 74.272308154606 0.20261596143246 23.081638336182 90 1 delete
08:48:38 60.370987 29.556337 6 72.543481789478 0.23484921455383 313.51699829102 90 1 delete
08:48:26 60.370980 29.556353 6 71.997234092356 0.012470670044422 34.706611633301 90 1 delete
08:48:20 60.370978 29.556333 6 71.819149441535 0.022956943139434 103.70669555664 90 1 delete
08:48:14 60.370995 29.556338 6 71.486199062629 0.17448072135448 32.923664093018 90 1 delete
08:48:05 60.370994 29.556376 6 71.255020465142 0.051372811198235 32.923664093018 90 1 delete
08:47:53 60.371025 29.556368 4 71.470580165724 0.067797906696796 83.268493652344 90 1 delete
08:47:44 60.370992 29.556400 8 71.527407884454 0.027033608406782 22.978868484497 90 1 delete
08:47:41 60.370975 29.556402 8 71.63453590591 0.2584655880928 22.978868484497 90 1 delete
08:47:32 60.370920 29.556435 8 72.21631205979 0.017130380496383 188.29447937012 90 1 delete
08:47:20 60.370908 29.556470 6 73.319910768681 0.15936104953289 137.8501739502 90 1 delete
08:47:08 60.370883 29.556453 6 74.528616893321 0.022104831412435 137.8501739502 90 1 delete
08:46:56 60.370884 29.556441 8 76.127508732478 0.29304787516594 137.8501739502 90 1 delete
08:46:47 60.370896 29.556431 6 77.935969604193 0.042687121778727 279.63342285156 90 1 delete
08:46:41 60.370914 29.556402 6 78.436024154848 0.3304288983345 211.63088989258 90 1 delete
08:46:35 60.370941 29.556373 8 79.679141490718 0.14703857898712 132.91522216797 90 1 delete
08:46:23 60.370968 29.556366 6 80.587109514228 0.020778143778443 132.91522216797 90 1 delete
08:46:14 60.370960 29.556357 8 80.056448683737 0.19054183363914 96.456985473633 90 1 delete
08:46:11 60.370966 29.556344 12 80.110235169387 0.029199043288827 96.456985473633 90 1 delete